Time;durP1;ratioP1;P1;durP2;ratioP2;P2;SDS_P1;SDS_P2;PMS_P1;PMS_P2;Temp;Humidity;BMP_temperature;BMP_pressure;BME280_temperature;BME280_humidity;BME280_pressure;Samples;Min_cycle;Max_cycle;Signal;HPM_P1;HPM_P2
2024/03/10 00:01:05;;;;;;;0.50;0.50;;;10.30;48.30;;;;;;5072388;28;20443;-62
2024/03/10 00:03:31;;;;;;;0.30;0.30;;;10.40;48.90;;;;;;5072393;28;20416;-62
2024/03/10 00:05:56;;;;;;;0.40;0.40;;;10.40;48.90;;;;;;5073579;28;20488;-62
2024/03/10 00:08:23;;;;;;;0.60;0.50;;;10.40;47.90;;;;;;5073265;28;20226;-62
2024/03/10 00:10:48;;;;;;;0.50;0.50;;;10.40;49.70;;;;;;5073448;28;20190;-62
2024/03/10 00:13:14;;;;;;;0.83;0.50;;;10.30;50.40;;;;;;5073416;28;20473;-62
2024/03/10 00:15:40;;;;;;;0.40;0.40;;;10.30;50.60;;;;;;5072209;28;20529;-62
2024/03/10 00:18:06;;;;;;;0.30;0.30;;;10.30;50.60;;;;;;5073030;28;20220;-62
2024/03/10 00:20:32;;;;;;;0.40;0.40;;;10.20;48.10;;;;;;5073113;28;20196;-62
2024/03/10 00:22:58;;;;;;;0.80;0.57;;;10.30;47.00;;;;;;5073169;28;20174;-62
2024/03/10 00:25:23;;;;;;;0.73;0.70;;;10.40;48.00;;;;;;5073529;28;20187;-62
2024/03/10 00:27:49;;;;;;;1.23;0.57;;;10.40;49.50;;;;;;5072885;28;20185;-61
2024/03/10 00:30:15;;;;;;;0.55;0.55;;;10.40;51.00;;;;;;5073109;28;20197;-62
2024/03/10 00:32:41;;;;;;;0.60;0.60;;;10.20;51.40;;;;;;5073048;28;20524;-62
2024/03/10 00:35:08;;;;;;;1.15;0.70;;;10.10;48.80;;;;;;5072848;28;20181;-62
2024/03/10 00:37:34;;;;;;;1.92;0.90;;;10.20;50.80;;;;;;5072647;28;20192;-61
2024/03/10 00:40:01;;;;;;;0.57;0.57;;;10.00;51.10;;;;;;5072718;28;20189;-62
2024/03/10 00:42:27;;;;;;;0.57;0.50;;;10.00;50.60;;;;;;5072920;28;20174;-62
2024/03/10 00:44:53;;;;;;;0.70;0.50;;;9.90;51.80;;;;;;5072841;28;20354;-62
2024/03/10 00:47:20;;;;;;;0.40;0.40;;;10.00;51.80;;;;;;5072698;28;20249;-62
2024/03/10 00:49:46;;;;;;;1.77;1.00;;;9.90;53.10;;;;;;5072276;28;20551;-61
2024/03/10 00:52:11;;;;;;;0.53;0.53;;;9.80;52.50;;;;;;5072696;28;20174;-62
2024/03/10 00:54:37;;;;;;;0.90;0.50;;;9.60;51.90;;;;;;5072655;28;20258;-62
2024/03/10 00:57:04;;;;;;;2.50;1.13;;;9.70;53.10;;;;;;5072544;28;20169;-61
2024/03/10 00:59:29;;;;;;;0.63;0.60;;;9.70;55.10;;;;;;5072046;28;20296;-61
2024/03/10 01:01:55;;;;;;;1.90;0.50;;;9.60;55.00;;;;;;5072387;28;20280;-62
2024/03/10 01:04:21;;;;;;;0.50;0.50;;;9.50;54.10;;;;;;5072292;28;20257;-62
2024/03/10 01:06:47;;;;;;;0.70;0.50;;;9.50;51.80;;;;;;5072461;28;20193;-62
2024/03/10 01:09:15;;;;;;;0.63;0.63;;;9.60;51.40;;;;;;5072002;28;20502;-61
2024/03/10 01:11:42;;;;;;;1.60;0.50;;;9.50;53.40;;;;;;5072257;28;20200;-61
2024/03/10 01:14:10;;;;;;;0.40;0.40;;;9.50;53.30;;;;;;5072327;28;20560;-61
2024/03/10 01:16:37;;;;;;;0.50;0.40;;;9.60;49.50;;;;;;5072115;28;20181;-61
2024/03/10 01:19:02;;;;;;;0.40;0.40;;;9.70;47.50;;;;;;5071793;28;20197;-61
2024/03/10 01:21:28;;;;;;;0.40;0.40;;;9.90;48.70;;;;;;5072113;28;20201;-62
2024/03/10 01:23:56;;;;;;;0.77;0.70;;;10.00;47.70;;;;;;5072058;28;20165;-62
2024/03/10 01:26:21;;;;;;;1.05;0.60;;;9.90;53.10;;;;;;5071732;28;20169;-62
2024/03/10 01:28:47;;;;;;;0.50;0.40;;;9.70;53.20;;;;;;5072094;28;20214;-62
2024/03/10 01:31:13;;;;;;;0.30;0.30;;;9.70;51.70;;;;;;5071671;28;20279;-61
2024/03/10 01:33:39;;;;;;;0.40;0.40;;;9.60;50.80;;;;;;5071974;28;20181;-62
2024/03/10 01:36:06;;;;;;;0.52;0.52;;;9.60;49.40;;;;;;5071872;28;20166;-62
2024/03/10 01:38:31;;;;;;;0.55;0.55;;;9.60;50.90;;;;;;5071638;28;20193;-62
2024/03/10 01:41:00;;;;;;;0.40;0.33;;;9.60;49.80;;;;;;5071729;28;20271;-62
2024/03/10 01:43:25;;;;;;;0.65;0.40;;;9.70;49.20;;;;;;5071769;28;20543;-62
2024/03/10 01:45:57;;;;;;;0.40;0.40;;;9.70;49.80;;;;;;5071648;28;20166;-62
2024/03/10 01:48:23;;;;;;;2.95;0.50;;;9.70;48.10;;;;;;5071417;28;20184;-62
2024/03/10 01:50:49;;;;;;;0.60;0.40;;;9.70;48.20;;;;;;5071545;28;20213;-62
2024/03/10 01:53:14;;;;;;;0.50;0.50;;;9.70;48.00;;;;;;5070541;28;20169;-62
2024/03/10 01:55:40;;;;;;;1.37;0.70;;;9.70;47.20;;;;;;5071670;28;20655;-61
2024/03/10 01:58:06;;;;;;;0.50;0.50;;;9.80;46.90;;;;;;5071300;28;20217;-62
2024/03/10 02:00:31;;;;;;;1.60;0.43;;;9.80;51.70;;;;;;5071375;28;20181;-62
2024/03/10 02:02:58;;;;;;;1.00;0.60;;;9.80;48.80;;;;;;5071427;28;20715;-62
2024/03/10 02:05:24;;;;;;;0.50;0.50;;;9.70;49.40;;;;;;5071447;28;20226;-62
2024/03/10 02:07:50;;;;;;;0.40;0.40;;;9.70;49.00;;;;;;5071016;28;20181;-61
2024/03/10 02:10:15;;;;;;;0.37;0.37;;;9.70;49.00;;;;;;5071385;28;20189;-62
2024/03/10 02:12:41;;;;;;;0.87;0.40;;;9.70;48.70;;;;;;5071377;28;20176;-61
2024/03/10 02:15:08;;;;;;;0.50;0.50;;;9.80;47.50;;;;;;5071300;28;20215;-61
2024/03/10 02:17:36;;;;;;;0.50;0.50;;;9.80;51.10;;;;;;5065480;28;20165;-62
2024/03/10 02:20:14;;;;;;;0.40;0.40;;;9.70;49.60;;;;;;5064995;28;20249;-62
2024/03/10 02:22:41;;;;;;;0.40;0.40;;;9.70;46.70;;;;;;5071262;28;20173;-62
2024/03/10 02:25:09;;;;;;;0.60;0.38;;;9.90;48.20;;;;;;5071205;28;20178;-62
2024/03/10 02:27:42;;;;;;;0.60;0.50;;;9.90;48.00;;;;;;5070983;28;20562;-62
2024/03/10 02:49:13;;;;;;;0.40;0.40;;;9.80;46.00;;;;;;5074880;28;20329;-62
2024/03/10 02:51:41;;;;;;;0.65;0.47;;;9.90;47.10;;;;;;5074979;28;20220;-61
2024/03/10 02:54:07;;;;;;;0.40;0.40;;;9.90;49.10;;;;;;5075018;28;20615;-62
2024/03/10 02:56:33;;;;;;;0.33;0.33;;;9.80;46.80;;;;;;5074805;28;20226;-62
2024/03/10 02:58:58;;;;;;;0.40;0.40;;;9.80;47.50;;;;;;5074520;28;20205;-62
2024/03/10 03:01:24;;;;;;;0.63;0.40;;;9.80;46.80;;;;;;5074697;28;20192;-62
2024/03/10 03:03:53;;;;;;;0.30;0.30;;;9.90;46.90;;;;;;5074765;28;20439;-62
2024/03/10 03:06:19;;;;;;;0.30;0.30;;;9.90;47.10;;;;;;5074706;28;20435;-62
2024/03/10 03:08:44;;;;;;;0.30;0.30;;;9.90;48.00;;;;;;5074381;28;20682;-62
2024/03/10 03:11:10;;;;;;;0.40;0.40;;;10.00;46.10;;;;;;5074500;28;20210;-62
2024/03/10 03:13:38;;;;;;;0.67;0.50;;;10.00;47.00;;;;;;5074507;28;20542;-62
2024/03/10 03:16:04;;;;;;;1.75;0.85;;;10.00;45.10;;;;;;5074511;28;20635;-62
2024/03/10 03:18:31;;;;;;;0.30;0.30;;;10.10;45.00;;;;;;5074150;28;20194;-61
2024/03/10 03:20:57;;;;;;;0.40;0.40;;;10.00;43.80;;;;;;5074297;28;20432;-62
2024/03/10 03:23:23;;;;;;;2.58;0.60;;;10.00;43.30;;;;;;5074299;28;20314;-62
2024/03/10 03:25:53;;;;;;;0.40;0.40;;;10.10;42.40;;;;;;5074223;28;20169;-62
2024/03/10 03:28:20;;;;;;;0.40;0.40;;;10.10;42.90;;;;;;5073980;28;20188;-62
2024/03/10 03:30:47;;;;;;;0.40;0.40;;;10.20;43.90;;;;;;5074239;28;20209;-62
2024/03/10 03:33:13;;;;;;;0.50;0.40;;;10.20;43.20;;;;;;5074179;28;20654;-62
2024/03/10 03:35:39;;;;;;;0.40;0.40;;;10.20;42.80;;;;;;5074201;28;20227;-62
2024/03/10 03:38:05;;;;;;;0.40;0.40;;;10.20;46.10;;;;;;5073752;28;20455;-62
2024/03/10 03:40:31;;;;;;;0.43;0.43;;;10.10;43.70;;;;;;5074001;28;20427;-62
2024/03/10 03:42:58;;;;;;;0.30;0.30;;;10.10;43.60;;;;;;5074116;28;20665;-61
2024/03/10 03:45:24;;;;;;;0.40;0.40;;;10.20;43.90;;;;;;5074047;28;20252;-61
2024/03/10 03:47:49;;;;;;;0.67;0.40;;;10.30;44.10;;;;;;5073588;28;20261;-62
2024/03/10 03:50:15;;;;;;;0.60;0.40;;;10.20;45.00;;;;;;5073398;28;20208;-62
2024/03/10 03:52:41;;;;;;;0.50;0.50;;;10.20;46.00;;;;;;5072297;28;20215;-62
2024/03/10 03:55:07;;;;;;;2.00;0.73;;;10.10;46.10;;;;;;5073828;28;20776;-61
2024/03/10 03:57:33;;;;;;;1.00;0.73;;;9.90;47.50;;;;;;5073699;28;20650;-62
2024/03/10 03:59:59;;;;;;;0.40;0.40;;;9.80;46.80;;;;;;5073258;28;20556;-62
2024/03/10 04:02:25;;;;;;;0.55;0.52;;;9.70;46.60;;;;;;5073601;28;20166;-62
2024/03/10 04:04:53;;;;;;;0.40;0.40;;;9.70;45.20;;;;;;5073496;28;20173;-62
2024/03/10 04:07:18;;;;;;;0.40;0.40;;;9.80;47.10;;;;;;5073516;28;20178;-61
2024/03/10 04:09:44;;;;;;;0.40;0.40;;;9.80;48.90;;;;;;5073222;28;20177;-61
2024/03/10 04:12:10;;;;;;;1.97;1.03;;;9.70;49.50;;;;;;5073501;28;20170;-61
2024/03/10 04:14:37;;;;;;;0.65;0.50;;;9.60;49.30;;;;;;5073381;28;20177;-61
2024/03/10 04:17:02;;;;;;;0.75;0.75;;;9.40;50.80;;;;;;5073890;28;20684;-62
2024/03/10 04:19:28;;;;;;;0.50;0.50;;;9.30;51.20;;;;;;5073015;28;20280;-61
2024/03/10 04:21:54;;;;;;;1.73;0.73;;;9.10;51.90;;;;;;5073327;28;20556;-62
2024/03/10 04:24:21;;;;;;;1.03;0.70;;;9.10;52.60;;;;;;5073322;28;20856;-61
2024/03/10 04:26:47;;;;;;;0.73;0.60;;;9.00;53.80;;;;;;5073424;28;20177;-61
2024/03/10 04:29:13;;;;;;;0.52;0.40;;;8.90;54.90;;;;;;5072959;28;20174;-61
2024/03/10 04:31:39;;;;;;;0.30;0.30;;;8.80;54.70;;;;;;5073135;28;20201;-61
2024/03/10 04:34:06;;;;;;;2.35;0.90;;;8.70;54.00;;;;;;5073019;28;20205;-61
2024/03/10 04:36:32;;;;;;;0.50;0.50;;;8.50;56.00;;;;;;5073079;28;20174;-61
2024/03/10 04:38:59;;;;;;;0.73;0.57;;;8.50;54.50;;;;;;5072725;28;20254;-61
2024/03/10 04:41:25;;;;;;;2.25;0.60;;;8.50;56.10;;;;;;5072893;28;20544;-61
2024/03/10 04:43:51;;;;;;;0.50;0.40;;;8.40;56.30;;;;;;5072394;28;20217;-61
2024/03/10 04:46:18;;;;;;;0.68;0.50;;;8.40;56.40;;;;;;5086946;28;20183;-61
2024/03/10 04:48:47;;;;;;;0.40;0.40;;;8.40;56.90;;;;;;5091855;28;20559;-61
2024/03/10 04:51:15;;;;;;;0.40;0.40;;;8.40;56.50;;;;;;5081860;28;20205;-62
2024/03/10 04:53:42;;;;;;;0.63;0.40;;;8.40;56.60;;;;;;5103366;22;20604;-61
2024/03/10 04:56:12;;;;;;;0.75;0.75;;;8.50;57.40;;;;;;5081275;28;20654;-63
2024/03/10 04:58:41;;;;;;;0.40;0.40;;;8.50;57.40;;;;;;5082101;28;20579;-63
2024/03/10 05:01:08;;;;;;;0.40;0.40;;;8.50;56.80;;;;;;5082717;28;20626;-63
2024/03/10 05:03:39;;;;;;;0.50;0.50;;;8.40;56.80;;;;;;5077777;28;20252;-63
2024/03/10 05:06:06;;;;;;;1.13;0.95;;;8.40;58.30;;;;;;5072450;28;20161;-63
2024/03/10 05:08:32;;;;;;;0.60;0.60;;;8.40;58.70;;;;;;5072434;28;20184;-63
2024/03/10 05:11:00;;;;;;;0.93;0.70;;;8.20;58.70;;;;;;5072455;28;20230;-63
2024/03/10 05:13:25;;;;;;;0.50;0.50;;;8.20;58.80;;;;;;5072357;28;20236;-63
2024/03/10 05:15:51;;;;;;;0.50;0.47;;;8.10;57.20;;;;;;5054631;28;20240;-63
2024/03/10 05:18:17;;;;;;;1.07;0.53;;;8.30;58.30;;;;;;5071867;28;20459;-63
2024/03/10 05:20:42;;;;;;;0.50;0.50;;;8.30;58.30;;;;;;5072201;28;20193;-63
2024/03/10 05:23:08;;;;;;;0.63;0.50;;;8.40;58.20;;;;;;5072206;28;20709;-63
2024/03/10 05:25:34;;;;;;;0.90;0.63;;;8.40;57.90;;;;;;5072037;28;20189;-63
2024/03/10 05:28:00;;;;;;;0.80;0.50;;;8.50;58.10;;;;;;5071879;28;20188;-63
2024/03/10 05:30:25;;;;;;;0.50;0.50;;;8.50;56.80;;;;;;5072063;28;20184;-63
2024/03/10 05:32:52;;;;;;;3.57;0.67;;;8.50;56.00;;;;;;5079438;28;20185;-63
2024/03/10 05:35:18;;;;;;;1.35;0.90;;;8.60;57.60;;;;;;5080760;28;20188;-63
2024/03/10 05:37:44;;;;;;;1.37;0.80;;;8.60;58.10;;;;;;5082380;28;20235;-63
2024/03/10 05:40:10;;;;;;;1.13;0.43;;;8.70;56.20;;;;;;5081020;28;20197;-63
2024/03/10 05:42:35;;;;;;;1.58;0.65;;;8.70;55.80;;;;;;5089875;28;20172;-63
2024/03/10 05:45:02;;;;;;;0.97;0.40;;;8.80;55.00;;;;;;5092056;28;20192;-63
2024/03/10 05:47:31;;;;;;;0.85;0.55;;;8.80;54.10;;;;;;5091942;28;20722;-63
2024/03/10 05:49:56;;;;;;;0.55;0.45;;;8.90;53.00;;;;;;5091704;28;20195;-63
2024/03/10 05:52:22;;;;;;;0.40;0.40;;;9.00;53.00;;;;;;5091924;28;20168;-63
2024/03/10 05:54:48;;;;;;;0.93;0.60;;;9.10;51.00;;;;;;5091803;28;20218;-63
2024/03/10 05:57:16;;;;;;;0.40;0.40;;;9.20;52.10;;;;;;5091846;28;20200;-63
2024/03/10 05:59:45;;;;;;;0.50;0.47;;;9.20;48.70;;;;;;5091426;28;20607;-63
2024/03/10 06:02:16;;;;;;;0.40;0.40;;;9.50;49.20;;;;;;5091634;28;20169;-63
2024/03/10 06:04:42;;;;;;;2.58;0.50;;;9.60;47.50;;;;;;5091392;28;20197;-63
2024/03/10 06:07:09;;;;;;;0.47;0.47;;;9.70;48.20;;;;;;5091726;28;20181;-63
2024/03/10 06:09:35;;;;;;;0.50;0.40;;;9.80;47.50;;;;;;5091432;28;20782;-63
2024/03/10 06:12:01;;;;;;;2.40;0.50;;;9.80;47.30;;;;;;5091605;28;20176;-63
2024/03/10 06:14:28;;;;;;;0.60;0.50;;;9.80;47.30;;;;;;5091542;28;20567;-63
2024/03/10 06:16:55;;;;;;;1.25;0.40;;;10.00;46.10;;;;;;5091472;28;20184;-63
2024/03/10 06:27:34;;;;;;;0.40;0.40;;;10.20;44.30;;;;;;5071594;28;20179;-64
2024/03/10 06:30:00;;;;;;;0.30;0.30;;;10.40;46.10;;;;;;5071025;28;20173;-64
2024/03/10 06:32:25;;;;;;;0.50;0.50;;;10.50;45.00;;;;;;5071301;28;20787;-63
2024/03/10 06:34:52;;;;;;;0.30;0.30;;;10.50;47.30;;;;;;5071162;28;20257;-63
2024/03/10 06:37:19;;;;;;;0.30;0.30;;;10.50;44.10;;;;;;5071180;28;20230;-63
2024/03/10 06:39:45;;;;;;;0.40;0.40;;;10.60;45.60;;;;;;5070827;28;20204;-63
2024/03/10 06:42:12;;;;;;;2.35;0.50;;;10.60;50.20;;;;;;5071114;28;21278;-63
2024/03/10 06:44:38;;;;;;;0.40;0.40;;;10.60;51.00;;;;;;5071086;28;20201;-63
2024/03/10 06:47:04;;;;;;;0.50;0.47;;;10.40;49.20;;;;;;5071083;28;20169;-63
2024/03/10 06:49:30;;;;;;;0.68;0.68;;;10.40;51.50;;;;;;5070839;28;20253;-63
2024/03/10 06:51:57;;;;;;;0.82;0.50;;;10.40;52.10;;;;;;5071118;28;20170;-63
2024/03/10 06:54:23;;;;;;;0.60;0.60;;;10.30;52.50;;;;;;5064595;28;20227;-63
2024/03/10 06:56:49;;;;;;;1.37;0.70;;;10.20;51.40;;;;;;5071080;28;20173;-63
2024/03/10 06:59:16;;;;;;;0.73;0.73;;;10.20;54.40;;;;;;5070634;28;20439;-63
2024/03/10 07:01:44;;;;;;;3.95;1.80;;;10.10;55.40;;;;;;5070943;28;20196;-63
2024/03/10 07:04:14;;;;;;;1.20;1.10;;;9.90;56.60;;;;;;5071130;28;20280;-63
2024/03/10 07:06:40;;;;;;;1.70;0.98;;;9.80;57.00;;;;;;5070967;28;20558;-63
2024/03/10 07:09:09;;;;;;;0.60;0.60;;;9.70;57.50;;;;;;5070569;28;20169;-63
2024/03/10 07:11:42;;;;;;;1.20;0.68;;;9.70;58.30;;;;;;5071002;28;20862;-63
2024/03/10 07:14:08;;;;;;;1.58;1.17;;;9.70;58.50;;;;;;5070811;28;20202;-63
2024/03/10 07:16:34;;;;;;;2.15;0.80;;;9.70;58.70;;;;;;5070900;28;20173;-63
2024/03/10 07:18:59;;;;;;;0.60;0.60;;;9.60;58.30;;;;;;5070556;28;20626;-63
2024/03/10 07:21:25;;;;;;;0.50;0.50;;;9.60;58.90;;;;;;5070698;28;20184;-63
2024/03/10 07:23:51;;;;;;;0.60;0.60;;;9.50;59.20;;;;;;5070863;28;20197;-63
2024/03/10 07:26:17;;;;;;;0.50;0.40;;;9.40;59.70;;;;;;5073821;28;20408;-63
2024/03/10 07:28:43;;;;;;;0.40;0.40;;;9.40;60.00;;;;;;5074130;28;20166;-63
2024/03/10 07:31:09;;;;;;;0.40;0.40;;;9.40;60.40;;;;;;5073797;28;20174;-63
2024/03/10 07:33:34;;;;;;;0.60;0.43;;;9.40;61.20;;;;;;5064353;28;20296;-63
2024/03/10 07:36:00;;;;;;;0.40;0.40;;;9.50;61.60;;;;;;5074025;28;20663;-64
2024/03/10 07:38:27;;;;;;;0.40;0.40;;;9.50;61.80;;;;;;5073056;28;20729;-63
2024/03/10 07:40:54;;;;;;;0.32;0.32;;;9.50;61.70;;;;;;5080440;28;20559;-64
2024/03/10 07:43:20;;;;;;;0.30;0.30;;;9.40;61.80;;;;;;5094309;28;20181;-63
2024/03/10 07:45:45;;;;;;;8.07;3.58;;;9.40;61.30;;;;;;5094040;28;20173;-63
2024/03/10 07:48:12;;;;;;;1.70;1.00;;;9.60;61.40;;;;;;5075495;28;20261;-63
2024/03/10 07:50:38;;;;;;;9.88;4.32;;;9.70;60.60;;;;;;5073889;28;20174;-63
2024/03/10 07:53:04;;;;;;;6.40;4.15;;;9.80;61.30;;;;;;5074005;28;20170;-63
2024/03/10 07:55:30;;;;;;;8.53;5.37;;;9.70;60.60;;;;;;5073540;28;20223;-62
2024/03/10 07:57:59;;;;;;;3.50;2.40;;;9.90;61.40;;;;;;5073658;28;20594;-64
2024/03/10 08:00:26;;;;;;;6.85;5.50;;;10.00;59.70;;;;;;5073897;28;20172;-62
2024/03/10 08:02:54;;;;;;;5.25;3.10;;;10.00;59.80;;;;;;5073806;28;20252;-62
2024/03/10 08:05:21;;;;;;;4.10;2.38;;;10.00;59.50;;;;;;5073507;28;20288;-62
2024/03/10 08:07:48;;;;;;;6.38;3.67;;;9.90;59.40;;;;;;5073570;28;20551;-62
2024/03/10 08:10:15;;;;;;;4.07;2.90;;;9.90;60.30;;;;;;5073495;28;20178;-62
2024/03/10 08:12:45;;;;;;;1.05;1.05;;;10.00;60.10;;;;;;5073769;28;20181;-62
2024/03/10 08:15:11;;;;;;;1.40;1.02;;;9.90;60.90;;;;;;5073468;28;20258;-62
2024/03/10 08:17:38;;;;;;;0.90;0.90;;;9.50;59.50;;;;;;5073319;28;20227;-62
2024/03/10 08:20:06;;;;;;;1.40;1.27;;;9.00;59.50;;;;;;5073209;28;20288;-63
2024/03/10 08:22:33;;;;;;;2.50;1.52;;;8.70;59.50;;;;;;5073434;28;20199;-62
2024/03/10 08:24:59;;;;;;;3.22;1.25;;;8.50;59.50;;;;;;5073297;28;20204;-62
2024/03/10 08:27:24;;;;;;;3.70;1.87;;;8.50;59.30;;;;;;5073722;28;20170;-62
2024/03/10 08:29:50;;;;;;;2.70;1.77;;;8.50;59.20;;;;;;5073011;28;20669;-63
2024/03/10 08:32:16;;;;;;;1.70;1.60;;;8.50;59.30;;;;;;5072824;28;20173;-63
2024/03/10 08:34:42;;;;;;;2.40;1.43;;;8.40;59.30;;;;;;5073337;28;20200;-62
2024/03/10 08:37:08;;;;;;;1.83;1.55;;;8.50;59.80;;;;;;5072195;28;20173;-62
2024/03/10 08:39:34;;;;;;;2.20;2.00;;;8.60;59.30;;;;;;5071852;28;20209;-62
2024/03/10 08:42:00;;;;;;;2.00;1.80;;;8.60;59.40;;;;;;5072627;28;20411;-62
2024/03/10 08:44:25;;;;;;;2.20;2.00;;;8.40;59.80;;;;;;5072997;28;20200;-63
2024/03/10 08:46:52;;;;;;;5.27;1.93;;;8.50;59.80;;;;;;5072920;28;20166;-63
2024/03/10 08:49:17;;;;;;;3.85;2.65;;;8.80;59.70;;;;;;5072849;28;20209;-63
2024/03/10 08:51:43;;;;;;;5.07;2.63;;;8.90;59.70;;;;;;5072866;28;20198;-63
2024/03/10 08:54:09;;;;;;;3.10;2.53;;;9.00;59.50;;;;;;5072468;28;20300;-62
2024/03/10 08:56:40;;;;;;;4.43;2.30;;;9.00;59.60;;;;;;5072803;28;20693;-63
2024/03/10 08:59:11;;;;;;;3.33;2.30;;;9.10;59.70;;;;;;5072267;28;20674;-63
2024/03/10 09:01:41;;;;;;;2.85;2.38;;;9.30;59.90;;;;;;5072456;28;20220;-63
2024/03/10 09:04:07;;;;;;;2.80;2.60;;;9.30;60.10;;;;;;5072599;28;20198;-63
2024/03/10 09:06:36;;;;;;;2.67;2.33;;;9.60;60.70;;;;;;5072566;28;20172;-63
2024/03/10 09:09:04;;;;;;;3.30;2.85;;;9.90;59.60;;;;;;5072024;28;20551;-63
2024/03/10 09:11:31;;;;;;;3.45;2.95;;;10.00;57.80;;;;;;5072335;28;20200;-63
2024/03/10 09:13:59;;;;;;;4.25;3.50;;;10.10;57.80;;;;;;5071954;28;20201;-62
2024/03/10 09:16:26;;;;;;;5.72;3.40;;;10.00;57.70;;;;;;5072399;28;20177;-62
2024/03/10 09:18:52;;;;;;;5.25;4.75;;;10.10;58.60;;;;;;5071900;28;20205;-62
2024/03/10 09:21:18;;;;;;;6.60;4.47;;;10.10;59.80;;;;;;5072258;28;20567;-62
2024/03/10 09:23:44;;;;;;;7.90;4.80;;;9.90;62.70;;;;;;5072051;28;20244;-62
2024/03/10 09:26:11;;;;;;;8.60;6.00;;;9.50;64.20;;;;;;5072221;28;20257;-62
2024/03/10 09:28:37;;;;;;;9.23;5.85;;;9.30;65.90;;;;;;5071645;28;20544;-63
2024/03/10 09:31:03;;;;;;;10.90;6.57;;;9.20;67.70;;;;;;5072077;28;20181;-61
2024/03/10 09:33:29;;;;;;;11.45;6.82;;;9.10;69.00;;;;;;5071972;28;20404;-61
2024/03/10 09:35:58;;;;;;;7.10;5.73;;;9.10;70.30;;;;;;5071955;28;20547;-61
2024/03/10 09:38:24;;;;;;;6.63;5.45;;;9.20;71.10;;;;;;5071534;28;20452;-61
2024/03/10 09:40:50;;;;;;;10.27;7.55;;;9.40;70.90;;;;;;5072034;28;20181;-61
2024/03/10 09:43:16;;;;;;;8.48;6.65;;;9.50;70.70;;;;;;5071725;28;20537;-61
2024/03/10 09:45:51;;;;;;;8.60;5.00;;;9.50;69.70;;;;;;5071898;28;20178;-61
2024/03/10 09:48:17;;;;;;;7.50;5.63;;;9.50;70.00;;;;;;5071590;28;20173;-61
2024/03/10 09:50:48;;;;;;;9.70;6.40;;;9.60;69.50;;;;;;5071933;28;20185;-61
2024/03/10 09:53:15;;;;;;;8.32;5.00;;;9.80;69.30;;;;;;5071710;28;20419;-61
2024/03/10 09:55:41;;;;;;;8.20;6.25;;;10.00;67.80;;;;;;5071525;28;20244;-61
2024/03/10 09:58:15;;;;;;;7.88;3.65;;;10.00;67.10;;;;;;5071328;28;20689;-61
2024/03/10 10:00:44;;;;;;;8.30;5.45;;;9.90;68.10;;;;;;5071789;28;20173;-61
2024/03/10 10:03:12;;;;;;;6.30;4.60;;;9.80;68.90;;;;;;5071680;28;20162;-61
2024/03/10 10:05:55;;;;;;;8.27;5.55;;;10.00;68.30;;;;;;5071562;28;20262;-62
2024/03/10 10:08:22;;;;;;;6.73;4.53;;;10.70;67.60;;;;;;5071532;28;20166;-62
2024/03/10 10:10:51;;;;;;;5.93;4.30;;;11.50;66.00;;;;;;5071596;28;20408;-62
2024/03/10 10:13:24;;;;;;;5.20;4.70;;;11.60;63.10;;;;;;5071562;28;20497;-62
2024/03/10 10:15:53;;;;;;;7.17;5.10;;;11.70;63.40;;;;;;5071645;28;20752;-62
2024/03/10 10:18:21;;;;;;;5.63;4.90;;;11.70;63.90;;;;;;5070507;28;20447;-61
2024/03/10 10:20:54;;;;;;;5.40;4.90;;;11.60;64.20;;;;;;5070827;28;20407;-61
2024/03/10 10:23:23;;;;;;;7.43;5.83;;;11.60;64.80;;;;;;5071313;28;20392;-61
2024/03/10 10:25:53;;;;;;;7.10;6.13;;;11.80;63.50;;;;;;5071384;28;20945;-61
2024/03/10 10:28:18;;;;;;;8.20;5.47;;;11.80;63.10;;;;;;5071037;28;20506;-61
2024/03/10 10:30:45;;;;;;;6.43;5.40;;;11.90;64.10;;;;;;5071143;28;20464;-61
2024/03/10 10:33:12;;;;;;;8.90;4.73;;;12.10;64.60;;;;;;5071276;28;20196;-62
2024/03/10 10:35:42;;;;;;;7.23;4.83;;;12.30;63.80;;;;;;5071212;28;20817;-62
2024/03/10 10:38:12;;;;;;;9.70;6.10;;;12.60;63.50;;;;;;5070968;28;20419;-61
2024/03/10 10:40:41;;;;;;;8.73;5.90;;;12.90;62.20;;;;;;5071297;28;20419;-61
2024/03/10 10:43:08;;;;;;;12.23;6.60;;;12.90;61.60;;;;;;5071227;28;20424;-61
2024/03/10 10:45:35;;;;;;;6.37;5.30;;;13.00;62.00;;;;;;5071114;28;20421;-62
2024/03/10 10:48:01;;;;;;;9.83;6.10;;;13.40;60.70;;;;;;5070832;28;20471;-61
2024/03/10 10:50:37;;;;;;;8.63;5.53;;;13.50;60.30;;;;;;5071064;28;20538;-61
2024/03/10 10:53:06;;;;;;;6.00;5.50;;;13.30;59.70;;;;;;5070509;28;20862;-61
2024/03/10 10:55:33;;;;;;;7.33;6.40;;;13.30;60.60;;;;;;5081227;22;20864;-60
2024/03/10 10:58:03;;;;;;;5.80;5.20;;;13.00;60.30;;;;;;5060040;28;20415;-60
2024/03/10 11:00:30;;;;;;;6.63;5.93;;;12.90;61.40;;;;;;5073002;28;20423;-60
2024/03/10 11:03:16;;;;;;;5.90;5.30;;;12.80;61.70;;;;;;5074644;28;20480;-60
2024/03/10 11:06:02;;;;;;;7.10;5.53;;;12.80;61.90;;;;;;5069795;28;20432;-60
2024/03/10 11:08:41;;;;;;;8.47;4.53;;;12.90;62.40;;;;;;5059080;28;20511;-60
2024/03/10 11:11:08;;;;;;;11.30;7.47;;;12.90;62.10;;;;;;5054445;28;20408;-60
2024/03/10 11:13:34;;;;;;;7.50;5.17;;;13.10;61.80;;;;;;5054681;28;21050;-60
2024/03/10 11:16:11;;;;;;;5.57;4.33;;;13.10;61.60;;;;;;5060217;28;20444;-60
2024/03/10 11:18:38;;;;;;;8.20;5.20;;;13.00;61.80;;;;;;5069228;28;20821;-60
2024/03/10 11:21:17;;;;;;;6.10;5.50;;;12.70;60.50;;;;;;5074470;28;20942;-60
2024/03/10 11:23:47;;;;;;;10.10;5.87;;;12.10;62.70;;;;;;5074360;28;20392;-60
2024/03/10 11:26:15;;;;;;;6.77;6.20;;;11.90;63.90;;;;;;5061528;28;20937;-60
2024/03/10 11:28:49;;;;;;;9.50;5.50;;;11.90;65.50;;;;;;5071221;28;20465;-60
2024/03/10 11:31:19;;;;;;;6.47;5.23;;;11.90;66.40;;;;;;5074312;28;20407;-60
2024/03/10 11:33:49;;;;;;;6.07;5.47;;;11.70;66.50;;;;;;5072604;28;20423;-60
2024/03/10 11:36:16;;;;;;;6.50;5.73;;;11.50;67.50;;;;;;5068733;28;20458;-60
2024/03/10 11:38:42;;;;;;;11.50;6.50;;;11.10;68.40;;;;;;5072059;28;20451;-60
2024/03/10 11:41:09;;;;;;;6.40;3.85;;;10.90;70.00;;;;;;5074130;28;20275;-60
2024/03/10 11:43:38;;;;;;;6.03;5.45;;;10.50;71.10;;;;;;5074118;28;20168;-60
2024/03/10 11:46:22;;;;;;;11.90;5.20;;;10.60;72.20;;;;;;5072401;28;20197;-60
2024/03/10 11:48:48;;;;;;;6.50;4.95;;;10.70;72.80;;;;;;5054651;28;20185;-60
2024/03/10 11:51:15;;;;;;;5.90;4.30;;;10.60;73.20;;;;;;5036048;28;20190;-60
2024/03/10 11:53:41;;;;;;;5.70;4.40;;;10.60;73.20;;;;;;5057650;28;20200;-60
2024/03/10 11:56:07;;;;;;;7.72;4.25;;;10.60;73.30;;;;;;5059437;28;20679;-60
2024/03/10 11:58:33;;;;;;;5.53;5.00;;;10.50;74.50;;;;;;5069933;28;20689;-60
2024/03/10 12:01:08;;;;;;;4.80;4.40;;;10.50;74.80;;;;;;5073710;28;20166;-60
2024/03/10 12:03:35;;;;;;;6.25;4.20;;;10.50;75.20;;;;;;5073769;28;20414;-60
2024/03/10 12:06:02;;;;;;;6.05;4.90;;;10.50;75.20;;;;;;5061322;28;20205;-60
2024/03/10 12:08:28;;;;;;;6.05;4.72;;;10.50;75.60;;;;;;5069018;28;20182;-60
2024/03/10 12:11:03;;;;;;;6.03;4.57;;;10.50;75.80;;;;;;5073452;28;20182;-60
2024/03/10 12:13:29;;;;;;;5.05;4.35;;;10.60;75.50;;;;;;5073481;28;20181;-60
2024/03/10 12:16:01;;;;;;;8.27;4.68;;;10.60;75.40;;;;;;5061760;28;20748;-60
2024/03/10 12:18:28;;;;;;;5.60;4.18;;;10.60;76.00;;;;;;5050547;28;20200;-60
2024/03/10 12:20:57;;;;;;;7.07;5.33;;;10.60;75.70;;;;;;5073402;28;20173;-60
2024/03/10 12:23:23;;;;;;;5.10;3.80;;;10.60;75.80;;;;;;5072951;28;20909;-60
2024/03/10 12:25:51;;;;;;;4.50;3.70;;;10.60;76.40;;;;;;5056813;28;20956;-60
2024/03/10 12:28:20;;;;;;;5.00;3.85;;;10.50;76.50;;;;;;5061629;28;20178;-60
2024/03/10 12:30:46;;;;;;;6.35;3.65;;;10.40;76.70;;;;;;5053585;28;20667;-60
2024/03/10 12:33:12;;;;;;;5.83;4.93;;;10.40;77.60;;;;;;5053106;28;20174;-60
2024/03/10 12:35:38;;;;;;;4.87;4.37;;;10.40;78.10;;;;;;5061543;28;20984;-60
2024/03/10 12:38:07;;;;;;;4.05;3.63;;;10.50;78.60;;;;;;5064943;28;20185;-60
2024/03/10 12:40:36;;;;;;;4.30;3.90;;;10.60;79.20;;;;;;5055042;28;20223;-60
2024/03/10 12:43:02;;;;;;;4.70;4.20;;;10.60;78.90;;;;;;5072882;28;20426;-60
2024/03/10 12:45:29;;;;;;;4.77;3.50;;;10.50;78.70;;;;;;5056074;28;20676;-59
2024/03/10 12:47:55;;;;;;;4.97;3.53;;;10.40;79.20;;;;;;5057943;28;20439;-60
2024/03/10 12:50:22;;;;;;;4.68;3.45;;;10.40;79.40;;;;;;5059584;28;20181;-60
2024/03/10 12:52:47;;;;;;;6.07;4.68;;;10.40;79.50;;;;;;5041677;28;20187;-60
2024/03/10 12:55:15;;;;;;;4.47;4.07;;;10.30;80.00;;;;;;5044754;28;20565;-59
2024/03/10 12:57:41;;;;;;;4.33;3.17;;;10.20;81.00;;;;;;5056186;28;20205;-60
2024/03/10 13:00:22;;;;;;;4.97;3.50;;;10.10;81.40;;;;;;5056736;28;20479;-59
2024/03/10 13:02:51;;;;;;;3.93;3.23;;;10.10;81.90;;;;;;5052240;28;20409;-59
2024/03/10 13:05:18;;;;;;;3.70;3.40;;;10.00;82.80;;;;;;5052474;28;20452;-60
2024/03/10 13:07:44;;;;;;;4.57;3.65;;;10.00;81.50;;;;;;5053251;28;20791;-60
2024/03/10 13:10:10;;;;;;;4.00;3.53;;;10.00;82.50;;;;;;5068419;28;20185;-60
2024/03/10 13:12:41;;;;;;;8.77;4.63;;;10.00;84.80;;;;;;5072413;28;20634;-60
2024/03/10 13:15:08;;;;;;;5.78;4.15;;;10.10;86.20;;;;;;5063772;28;20699;-60
2024/03/10 13:17:35;;;;;;;4.90;3.75;;;10.10;86.50;;;;;;5056099;28;20213;-60
2024/03/10 13:20:05;;;;;;;6.45;4.00;;;10.10;87.50;;;;;;5055310;28;20614;-60